Latest Weather Observations for Lucas Heights

IDN60901

Issued at 9:55 pm EST Tuesday 30 September 2014 (issued every 10 minutes, with the page automatically refreshed every 10 minutes)

About weather observations | Map of Sydney area stations | Latest observations for Sydney area | Other Formats
Station Details ID: 066023 Name: LUCAS HEIGHTS AWS Lat: -34.05 Lon: 150.98 Height: 140.0 m
Data from the previous 72 hours. | See also: Recent months for locations in New South Wales
Date/Time
EST
Tmp

°C
App
Tmp
°C
Dew
Point
°C
Rel
Hum
%
Delta-T

°C
Wind Press
QNH
hPa
Press
MSL
hPa
Rain
since
9 am
mm
Dir
 
Spd
km/h
Gust
km/h
Spd
kts
Gust
kts
30/09:45pm 26.0 19.2 4.9 25 10.8 WNW 30 43 16 23 1007.8 - 0.0
30/09:30pm 26.2 19.3 4.8 25 10.9 WNW 30 41 16 22 1007.7 - 0.0
30/09:15pm 26.3 19.4 4.7 25 11.0 WNW 30 41 16 22 1007.7 - 0.0
30/09:00pm 26.7 19.8 4.6 24 11.3 WNW 30 46 16 25 1007.7 - 0.0
30/08:45pm 26.7 19.2 4.5 24 11.3 WNW 33 48 18 26 1007.7 - 0.0
30/08:30pm 26.6 19.3 4.5 24 11.2 WNW 32 44 17 24 1007.7 - 0.0
30/08:15pm 26.6 20.1 4.5 24 11.2 WNW 28 41 15 22 1007.7 - 0.0
30/08:00pm 26.6 19.7 4.5 24 11.2 WNW 30 41 16 22 1007.7 - 0.0
30/07:45pm 27.0 20.1 4.5 23 11.5 WNW 30 41 16 22 1007.7 - 0.0
30/07:30pm 27.1 19.8 4.6 23 11.5 WNW 32 44 17 24 1007.7 - 0.0
30/07:15pm 27.2 20.3 4.7 23 11.5 WNW 30 43 16 23 1007.8 - 0.0
30/07:00pm 27.1 21.0 4.6 23 11.5 WNW 26 37 14 20 1007.7 - 0.0
30/06:45pm 27.6 21.5 4.6 23 11.8 WNW 26 35 14 19 1007.7 - 0.0
30/06:30pm 27.9 22.5 4.6 22 12.0 WNW 22 35 12 19 1007.6 - 0.0
30/06:15pm 28.4 22.6 4.6 22 12.3 WNW 24 35 13 19 1007.4 - 0.0
30/06:00pm 28.8 22.6 4.5 21 12.5 WNW 26 35 14 19 1007.2 - 0.0
30/05:45pm 29.6 23.4 4.3 20 13.1 WNW 26 41 14 22 1007.2 - 0.0
30/05:30pm 30.1 22.7 4.0 19 13.4 WNW 32 48 17 26 1007.3 - 0.0
30/05:15pm 30.5 22.5 3.8 18 13.7 WNW 35 54 19 29 1007.4 - 0.0
30/05:00pm 30.7 21.1 3.2 17 14.0 WNW 43 61 23 33 1007.3 - 0.0
30/04:45pm 31.0 19.9 2.5 16 14.4 WNW 50 76 27 41 1007.2 - 0.0
30/04:30pm 31.3 20.7 3.2 17 14.4 WNW 48 69 26 37 1007.3 - 0.0
30/04:15pm 31.6 21.0 3.2 16 14.6 WNW 48 69 26 37 1007.3 - 0.0
30/04:00pm 32.0 21.4 3.0 16 14.9 WNW 48 67 26 36 1007.3 - 0.0
30/03:45pm 32.1 21.9 3.3 16 14.8 WNW 46 72 25 39 1007.4 - 0.0
30/03:30pm 32.4 25.6 5.1 18 14.5 WNW 30 59 16 32 1007.4 - 0.0
30/03:15pm 32.1 25.3 5.3 18 14.3 WNW 30 46 16 25 1007.4 - 0.0
30/03:00pm 32.0 23.8 5.0 18 14.3 W 37 54 20 29 1007.6 - 0.0
30/02:45pm 31.9 22.9 4.6 18 14.3 WNW 41 63 22 34 1007.9 - 0.0
30/02:30pm 31.3 23.5 4.9 19 13.9 WNW 35 54 19 29 1008.3 - 0.0
30/02:15pm 30.8 22.9 4.6 19 13.7 W 35 57 19 31 1008.5 - 0.0
30/02:00pm 31.3 21.9 4.2 18 14.1 WNW 43 65 23 35 1008.7 - 0.0
30/01:45pm 31.7 24.3 5.2 19 14.1 W 33 46 18 25 1008.9 - 0.0
30/01:30pm 31.4 26.1 8.4 24 12.8 WNW 26 57 14 31 1009.1 - 0.0
30/01:15pm 31.0 26.3 9.2 26 12.3 NNW 24 39 13 21 1009.3 - 0.0
30/01:00pm 30.8 26.6 9.6 27 12.0 NW 22 37 12 20 1009.5 - 0.0
30/12:45pm 30.2 24.4 9.4 27 11.7 NW 30 43 16 23 1009.8 - 0.0
30/12:30pm 29.5 25.8 10.0 29 11.1 NNW 20 37 11 20 1010.3 - 0.0
30/12:15pm 28.7 24.2 10.0 31 10.6 NW 24 35 13 19 1010.7 - 0.0
30/12:00pm 28.0 24.7 10.8 34 9.8 NW 19 30 10 16 1011.0 - 0.0
30/11:45am 27.3 24.4 11.1 36 9.3 NNW 17 35 9 19 1011.3 - 0.0
30/11:30am 26.0 24.4 11.4 40 8.3 NW 11 22 6 12 1011.6 - 0.0
30/11:15am 25.4 23.3 11.0 40 8.1 NW 13 19 7 10 1012.0 - 0.0
30/11:00am 25.5 22.9 10.6 39 8.4 NW 15 24 8 13 1012.2 - 0.0
30/10:45am 25.3 22.9 11.3 41 8.0 NW 15 20 8 11 1012.5 - 0.0
30/10:30am 25.0 23.0 11.6 43 7.6 NNW 13 19 7 10 1012.7 - 0.0
30/10:15am 24.6 21.3 11.0 42 7.7 NNW 19 28 10 15 1012.9 - 0.0
30/10:00am 24.2 21.5 11.6 45 7.2 NNW 17 30 9 16 1013.1 - 0.0
30/09:45am 23.6 21.6 11.5 46 6.8 NNW 13 22 7 12 1013.4 - 0.0
30/09:30am 23.1 21.0 11.2 47 6.7 NNW 13 20 7 11 1013.7 - 0.0
30/09:15am 23.0 20.8 10.8 46 6.8 NNW 13 20 7 11 1013.7 - 0.0
30/09:00am 22.7 20.4 10.5 46 6.7 NNW 13 19 7 10 1013.8 - 0.0
30/08:45am 22.1 19.5 10.6 48 6.4 NNW 15 22 8 12 1013.9 - 0.0
30/08:30am 21.5 18.8 10.4 49 6.1 NNW 15 22 8 12 1013.9 - 0.0
30/08:15am 20.9 19.0 10.4 51 5.7 NNW 11 22 6 12 1014.0 - 0.0
30/08:00am 20.6 18.6 10.2 51 5.7 NW 11 19 6 10 1014.0 - 0.0
30/07:45am 20.0 18.4 10.3 53 5.3 NW 9 19 5 10 1013.8 - 0.0
30/07:30am 19.6 18.1 10.4 55 5.0 NW 9 15 5 8 1013.7 - 0.0
30/07:15am 18.8 16.9 10.4 58 4.5 NW 11 19 6 10 1013.7 - 0.0
30/07:00am 18.3 15.9 10.0 58 4.4 WNW 13 19 7 10 1013.8 - 0.0
30/06:45am 18.1 15.2 9.7 58 4.5 WNW 15 22 8 12 1013.8 - 0.0
30/06:30am 17.9 14.6 9.7 58 4.4 WNW 17 22 9 12 1013.6 - 0.0
30/06:15am 17.8 14.6 9.8 59 4.3 WNW 17 19 9 10 1013.4 - 0.0
30/06:00am 17.6 14.4 9.8 60 4.1 WNW 17 22 9 12 1013.2 - 0.0
30/05:45am 17.7 14.5 9.9 60 4.1 WNW 17 20 9 11 1013.2 - 0.0
30/05:30am 17.8 14.6 10.1 60 4.1 NW 17 22 9 12 1013.1 - 0.0
30/05:15am 17.8 14.4 10.5 62 3.9 NW 19 22 10 12 1013.0 - 0.0
30/05:00am 17.8 14.4 10.7 63 3.8 NW 19 22 10 12 1013.1 - 0.0
30/04:45am 17.9 14.5 11.2 65 3.7 NW 20 24 11 13 1013.1 - 0.0
30/04:30am 17.2 14.2 13.7 80 2.0 NW 22 26 12 14 1013.1 - 0.0
30/04:15am 13.4 10.1 11.7 89 0.9 NW 20 24 11 13 1013.0 - 0.0
30/04:00am 12.7 10.2 11.0 89 0.9 NW 15 22 8 12 1013.1 - 0.0
30/03:45am 12.6 10.4 10.8 89 0.9 NW 13 19 7 10 1013.2 - 0.0
30/03:30am 12.3 10.0 10.6 89 0.9 NW 13 15 7 8 1013.3 - 0.0
30/03:15am 12.2 9.9 10.4 89 0.9 NW 13 15 7 8 1013.5 - 0.0
30/03:00am 12.3 10.8 10.5 89 0.9 NW 9 13 5 7 1013.6 - 0.0
30/02:45am 12.6 11.1 10.7 88 1.0 NW 9 13 5 7 1013.7 - 0.0
30/02:30am 12.6 11.1 10.7 88 1.0 NNW 9 13 5 7 1013.8 - 0.0
30/02:15am 12.6 11.5 10.7 88 1.0 NNW 7 9 4 5 1013.9 - 0.0
30/02:00am 12.7 11.2 10.7 88 1.0 N 9 13 5 7 1014.0 - 0.0
30/01:45am 12.8 11.4 10.8 88 1.1 N 9 13 5 7 1014.2 - 0.0
30/01:30am 12.8 11.3 10.7 87 1.1 NNE 9 13 5 7 1014.3 - 0.0
30/01:15am 12.9 11.5 10.8 87 1.1 NE 9 13 5 7 1014.4 - 0.0
30/01:00am 13.3 11.9 11.0 86 1.2 ENE 9 11 5 6 1014.6 - 0.0
30/12:45am 13.7 12.4 11.3 85 1.3 E 9 9 5 5 1014.7 - 0.0
30/12:30am 14.0 13.2 11.6 85 1.3 E 7 9 4 5 1014.9 - 0.0
30/12:15am 13.8 12.9 11.2 84 1.4 ENE 7 11 4 6 1015.0 - 0.0
30/12:00am 13.8 13.0 11.2 84 1.4 E 6 11 3 6 1015.1 - 0.0
 
Date/Time
EST
Tmp

°C
App
Tmp
°C
Dew
Point
°C
Rel
Hum
%
Delta-T

°C
Wind Press
QNH
hPa
Press
MSL
hPa
Rain
since
9 am
mm
Dir
 
Spd
km/h
Gust
km/h
Spd
kts
Gust
kts
29/11:45pm 14.2 13.9 11.3 83 1.6 ESE 4 7 2 4 1015.0 - 0.0
29/11:30pm 14.8 15.0 11.9 83 1.6 ESE 2 4 1 2 1014.9 - 0.0
29/11:15pm 14.8 14.6 11.8 82 1.6 NE 4 6 2 3 1015.0 - 0.0
29/11:00pm 15.1 14.6 12.0 82 1.7 E 6 7 3 4 1015.0 - 0.0
29/10:45pm 15.1 14.5 11.6 79 1.9 ENE 6 7 3 4 1015.1 - 0.0
29/10:30pm 15.6 14.8 11.8 78 2.1 NE 7 9 4 5 1015.2 - 0.0
29/10:15pm 16.2 15.5 12.0 76 2.3 ENE 7 11 4 6 1015.2 - 0.0
29/10:00pm 16.8 16.2 12.3 75 2.5 SE 7 11 4 6 1015.1 - 0.0
29/09:45pm 17.1 16.6 12.5 74 2.6 S 7 11 4 6 1015.0 - 0.0
29/09:30pm 17.2 15.9 12.4 73 2.7 S 11 15 6 8 1015.1 - 0.0
29/09:15pm 17.6 15.2 12.6 72 2.8 S 17 19 9 10 1015.1 - 0.0
29/09:00pm 17.7 15.3 12.6 72 2.9 S 17 20 9 11 1015.3 - 0.0
29/08:45pm 18.1 15.3 12.6 70 3.1 S 19 20 10 11 1015.3 - 0.0
29/08:30pm 18.4 15.6 12.5 68 3.3 S 19 22 10 12 1015.3 - 0.0
29/08:15pm 18.9 16.9 12.6 67 3.5 SSE 15 20 8 11 1015.2 - 0.0
29/08:00pm 19.4 17.0 12.7 65 3.8 S 17 22 9 12 1015.1 - 0.0
29/07:45pm 19.8 18.2 12.7 63 4.0 SSE 13 19 7 10 1015.0 - 0.0
29/07:30pm 20.4 18.7 12.4 60 4.5 SSE 13 19 7 10 1014.7 - 0.0
29/07:15pm 21.1 19.2 11.8 55 5.2 SSE 13 19 7 10 1014.5 - 0.0
29/07:00pm 22.6 19.7 9.7 44 7.0 SSE 15 22 8 12 1014.3 - 0.0
29/06:45pm 24.3 20.9 7.6 34 8.8 SSE 15 22 8 12 1013.9 - 0.0
29/06:30pm 25.4 23.1 7.5 32 9.5 SSW 9 19 5 10 1013.5 - 0.0
29/06:15pm 26.2 23.1 7.4 30 10.0 NW 13 19 7 10 1013.2 - 0.0
29/06:00pm 27.3 23.8 7.0 27 10.8 WNW 15 19 8 10 1012.9 - 0.0
29/05:45pm 28.1 24.8 6.2 25 11.6 WNW 13 19 7 10 1012.7 - 0.0
29/05:30pm 28.8 24.6 5.9 23 12.1 W 17 24 9 13 1012.5 - 0.0
29/05:15pm 29.3 24.7 5.8 22 12.4 WNW 19 28 10 15 1012.3 - 0.0
29/05:00pm 29.6 24.9 5.9 22 12.6 WNW 20 33 11 18 1012.0 - 0.0
29/04:45pm 30.0 26.2 6.0 22 12.8 WNW 15 24 8 13 1011.8 - 0.0
29/04:30pm 30.2 25.6 5.6 21 13.0 WNW 19 30 10 16 1011.7 - 0.0
29/04:15pm 30.5 26.6 5.5 20 13.2 W 15 26 8 14 1011.5 - 0.0
29/04:00pm 30.5 25.9 5.4 20 13.3 W 19 30 10 16 1011.4 - 0.0
29/03:45pm 30.7 26.6 6.4 21 13.1 WNW 17 35 9 19 1011.2 - 0.0
29/03:30pm 30.5 28.1 7.0 23 12.8 WNW 9 19 5 10 1011.3 - 0.0
29/03:15pm 30.2 26.6 6.9 23 12.6 NW 15 26 8 14 1011.4 - 0.0
29/03:00pm 29.9 26.3 6.8 23 12.5 WNW 15 30 8 16 1011.3 - 0.0
29/02:45pm 29.9 26.1 7.4 24 12.3 WNW 17 24 9 13 1011.5 - 0.0
29/02:30pm 29.7 25.8 7.2 24 12.2 WNW 17 26 9 14 1011.7 - 0.0
29/02:15pm 29.4 26.3 7.2 24 12.0 NNW 13 22 7 12 1011.8 - 0.0
29/02:00pm 29.5 26.4 7.1 24 12.1 WNW 13 28 7 15 1012.1 - 0.0
29/01:45pm 29.2 25.6 6.8 24 12.0 WNW 15 30 8 16 1012.3 - 0.0
29/01:30pm 29.4 25.5 7.1 24 12.1 NW 17 30 9 16 1012.3 - 0.0
29/01:15pm 29.2 25.7 7.0 24 12.0 W 15 26 8 14 1012.5 - 0.0
29/01:00pm 29.2 25.8 7.5 25 11.8 WSW 15 24 8 13 1012.6 - 0.0
29/12:45pm 28.8 26.2 7.6 26 11.5 WSW 11 22 6 12 1012.9 - 0.0
29/12:30pm 28.1 25.6 8.4 29 10.8 WNW 11 22 6 12 1013.2 - 0.0
29/12:15pm 27.5 24.1 7.7 28 10.7 WNW 15 24 8 13 1013.4 - 0.0
29/12:00pm 27.3 23.9 7.6 28 10.6 W 15 22 8 12 1013.6 - 0.0
29/11:45am 27.1 22.9 7.5 29 10.5 W 19 33 10 18 1013.7 - 0.0
29/11:30am 26.8 23.5 8.1 30 10.1 W 15 26 8 14 1013.9 - 0.0
29/11:15am 26.1 22.7 7.7 31 9.9 WNW 15 26 8 14 1014.0 - 0.0
29/11:00am 25.6 22.9 8.8 34 9.2 WNW 13 20 7 11 1014.1 - 0.0
29/10:45am 24.9 22.2 8.9 36 8.7 NW 13 22 7 12 1014.2 - 0.0
29/10:30am 24.4 21.7 9.1 37 8.3 WNW 13 20 7 11 1014.3 - 0.0
29/10:15am 23.8 21.7 9.8 41 7.7 NW 11 19 6 10 1014.5 - 0.0
29/10:00am 23.2 21.2 10.1 43 7.2 NW 11 22 6 12 1014.6 - 0.0
29/09:45am 22.3 20.3 10.1 46 6.7 NW 11 19 6 10 1014.7 - 0.0
29/09:30am 21.8 20.2 10.1 47 6.4 NNW 9 17 5 9 1014.7 - 0.0
29/09:15am 20.9 18.7 9.5 48 6.1 NW 11 19 6 10 1014.8 - 0.0
29/09:00am 20.6 18.5 9.7 49 5.9 NNW 11 19 6 10 1014.8 - 0.0
29/08:45am 19.5 16.9 9.4 52 5.4 NW 13 20 7 11 1014.8 - 0.0
29/08:30am 18.8 16.1 9.1 53 5.1 NW 13 20 7 11 1014.8 - 0.0
29/08:15am 18.0 15.2 8.7 54 4.8 NW 13 22 7 12 1014.6 - 0.0
29/08:00am 17.4 13.4 8.3 55 4.7 WNW 19 28 10 15 1014.4 - 0.0
29/07:45am 16.8 12.8 8.4 57 4.3 WNW 19 26 10 14 1014.4 - 0.0
29/07:30am 15.6 11.3 8.0 60 3.8 WNW 20 26 11 14 1014.4 - 0.0
29/07:15am 15.0 11.2 7.5 61 3.7 WNW 17 22 9 12 1014.5 - 0.0
29/07:00am 14.9 11.1 7.4 61 3.7 WNW 17 22 9 12 1014.5 - 0.0
29/06:45am 14.6 10.2 7.3 61 3.6 WNW 20 30 11 16 1014.4 - 0.0
29/06:30am 14.3 9.1 7.3 63 3.5 WNW 24 32 13 17 1014.2 - 0.0
29/06:15am 14.1 8.5 7.1 62 3.4 WNW 26 32 14 17 1014.0 - 0.0
29/06:00am 14.1 8.5 7.3 63 3.4 WNW 26 32 14 17 1013.9 - 0.0
29/05:45am 13.8 9.0 7.3 65 3.2 WNW 22 28 12 15 1013.9 - 0.0
29/05:30am 13.8 9.4 7.3 65 3.2 WNW 20 26 11 14 1013.8 - 0.0
29/05:15am 14.1 9.7 7.5 64 3.3 WNW 20 26 11 14 1013.7 - 0.0
29/05:00am 14.1 9.4 7.7 65 3.2 WNW 22 24 12 13 1013.6 - 0.0
29/04:45am 14.0 9.3 7.9 66 3.0 NW 22 30 12 16 1013.5 - 0.0
29/04:30am 13.8 9.2 8.0 68 2.9 NW 22 28 12 15 1013.4 - 0.0
29/04:15am 14.2 9.6 8.0 66 3.1 NW 22 32 12 17 1013.4 - 0.0
29/04:00am 14.6 9.6 8.0 64 3.3 NW 24 30 13 16 1013.5 - 0.0
29/03:45am 14.8 9.1 8.3 65 3.3 NW 28 35 15 19 1013.4 - 0.0
29/03:30am 14.7 8.7 8.5 66 3.1 NW 30 35 16 19 1013.6 - 0.0
29/03:15am 14.7 9.1 8.6 67 3.1 NW 28 33 15 18 1013.7 - 0.0
29/03:00am 15.0 9.4 8.9 67 3.1 NNW 28 32 15 17 1013.8 - 0.0
29/02:45am 14.9 9.9 9.6 70 2.8 NNW 26 30 14 16 1014.1 - 0.0
29/02:30am 14.1 10.2 10.7 80 1.8 NNW 22 26 12 14 1014.4 - 0.0
29/02:15am 12.4 9.2 10.0 85 1.2 NW 17 20 9 11 1014.8 - 0.0
29/02:00am 11.6 9.4 9.2 85 1.2 NW 11 13 6 7 1015.1 - 0.0
29/01:45am 11.4 9.8 8.9 84 1.3 NNW 7 9 4 5 1015.3 - 0.0
29/01:30am 11.9 10.0 9.2 83 1.4 NNW 9 13 5 7 1015.4 - 0.0
29/01:15am 12.2 10.4 9.4 83 1.4 NNW 9 15 5 8 1015.5 - 0.0
29/01:00am 12.3 10.1 9.3 82 1.5 - 11 17 6 9 1015.5 - 0.0
29/12:45am 12.6 10.0 9.4 81 1.6 N 13 19 7 10 1015.4 - 0.0
29/12:30am 13.0 10.2 9.9 81 1.6 - 15 19 8 10 1015.5 - 0.0
29/12:15am 13.0 9.8 9.8 81 1.7 - 17 22 9 12 1015.5 - 0.0
29/12:00am 12.8 9.0 9.7 81 1.6 N 20 26 11 14 1015.6 - 0.0
 
Date/Time
EST
Tmp

°C
App
Tmp
°C
Dew
Point
°C
Rel
Hum
%
Delta-T

°C
Wind Press
QNH
hPa
Press
MSL
hPa
Rain
since
9 am
mm
Dir
 
Spd
km/h
Gust
km/h
Spd
kts
Gust
kts
28/11:45pm 13.3 10.2 10.3 82 1.6 N 17 22 9 12 1016.0 - 0.0
28/11:30pm 12.9 10.1 10.0 82 1.5 N 15 19 8 10 1016.3 - 0.0
28/11:15pm 12.8 11.1 9.7 81 1.6 NNW 9 15 5 8 1016.5 - 0.0
28/11:00pm 13.2 11.6 10.1 81 1.6 NNW 9 11 5 6 1016.6 - 0.0
28/10:45pm 13.0 11.3 10.0 82 1.6 NNW 9 15 5 8 1016.8 - 0.0
28/10:30pm 13.0 10.6 9.9 81 1.6 NNW 13 15 7 8 1017.0 - 0.0
28/10:15pm 13.1 11.0 9.8 80 1.7 NNW 11 13 6 7 1017.0 - 0.0
28/10:00pm 13.3 10.7 9.5 78 2.0 N 13 15 7 8 1017.0 - 0.0
28/09:45pm 14.3 11.9 9.9 75 2.3 N 13 15 7 8 1017.0 - 0.0
28/09:30pm 15.3 13.0 10.5 73 2.5 N 13 15 7 8 1017.0 - 0.0
28/09:15pm 15.6 13.0 10.8 73 2.6 NNE 15 19 8 10 1017.0 - 0.0
28/09:00pm 15.8 13.2 10.8 72 2.7 NNE 15 20 8 11 1016.9 - 0.0
28/08:45pm 16.1 13.2 11.0 72 2.7 NNE 17 22 9 12 1016.9 - 0.0
28/08:30pm 16.2 13.3 11.1 72 2.8 NNE 17 26 9 14 1016.7 - 0.0
28/08:15pm 16.3 13.1 11.1 71 2.8 NNE 19 26 10 14 1016.7 - 0.0
28/08:00pm 16.4 13.2 11.2 71 2.8 NNE 19 28 10 15 1016.6 - 0.0
28/07:45pm 16.6 13.8 11.3 71 2.9 NNE 17 22 9 12 1016.4 - 0.0
28/07:30pm 16.8 14.0 11.4 70 2.9 NNE 17 22 9 12 1016.3 - 0.0
28/07:15pm 16.9 13.8 11.5 70 2.9 NNE 19 26 10 14 1016.1 - 0.0
28/07:00pm 17.0 13.9 11.5 70 3.0 NNE 19 30 10 16 1015.8 - 0.0
28/06:45pm 17.4 14.3 11.6 69 3.2 NNE 19 32 10 17 1015.7 - 0.0
28/06:30pm 17.7 14.6 11.7 68 3.3 NNE 19 30 10 16 1015.6 - 0.0
28/06:15pm 18.0 14.3 11.6 66 3.5 NE 22 32 12 17 1015.6 - 0.0
28/06:00pm 18.5 14.4 11.5 63 3.9 NE 24 37 13 20 1015.5 - 0.0
28/05:45pm 19.2 15.8 11.4 60 4.3 NNE 20 39 11 21 1015.4 - 0.0
28/05:30pm 19.8 17.1 11.6 59 4.6 NE 17 26 9 14 1015.4 - 0.0
28/05:15pm 20.3 17.2 11.7 57 4.8 NE 19 30 10 16 1015.5 - 0.0
28/05:00pm 20.8 17.8 11.8 56 5.0 NE 19 28 10 15 1015.5 - 0.0
28/04:45pm 21.3 17.6 11.6 54 5.4 NE 22 30 12 16 1015.6 - 0.0
28/04:30pm 21.8 18.4 11.3 51 5.9 NE 20 30 11 16 1015.7 - 0.0
28/04:15pm 22.4 19.3 11.7 50 6.0 NE 19 30 10 16 1015.6 - 0.0
28/04:00pm 22.5 18.7 11.3 49 6.3 NE 22 33 12 18 1015.6 - 0.0
28/03:45pm 22.8 19.4 11.4 48 6.4 NE 20 28 11 15 1015.5 - 0.0
28/03:30pm 22.9 19.1 11.2 47 6.6 NE 22 33 12 18 1015.6 - 0.0
28/03:15pm 23.5 19.7 11.0 45 7.0 NE 22 32 12 17 1015.7 - 0.0
28/03:00pm 24.3 20.7 8.3 36 8.6 N 17 30 9 16 1015.8 - 0.0
28/02:45pm 24.2 20.8 7.8 35 8.7 NNW 15 28 8 15 1016.0 - 0.0
28/02:30pm 23.9 19.7 7.4 34 8.7 N 19 30 10 16 1016.3 - 0.0
28/02:15pm 24.0 19.8 7.6 35 8.7 N 19 30 10 16 1016.5 - 0.0
28/02:00pm 23.6 19.8 7.6 35 8.4 N 17 32 9 17 1016.7 - 0.0
28/01:45pm 23.7 20.4 7.9 36 8.4 N 15 28 8 15 1017.0 - 0.0
28/01:30pm 23.1 18.9 7.4 36 8.2 NNW 19 30 10 16 1017.3 - 0.0
28/01:15pm 22.9 19.2 7.9 38 7.9 N 17 28 9 15 1017.7 - 0.0
28/01:00pm 22.7 19.1 8.2 39 7.7 N 17 28 9 15 1018.0 - 0.0
28/12:45pm 22.5 19.2 8.1 39 7.6 N 15 26 8 14 1018.2 - 0.0
28/12:30pm 22.4 18.9 8.6 41 7.4 NNW 17 32 9 17 1018.6 - 0.0
28/12:15pm 22.0 18.5 8.9 43 7.0 N 17 30 9 16 1018.9 - 0.0
28/12:00pm 21.8 19.3 9.6 45 6.6 NNW 13 24 7 13 1019.2 - 0.0
28/11:45am 21.2 18.3 9.5 47 6.3 NNW 15 24 8 13 1019.5 - 0.0
28/11:30am 20.8 18.0 10.0 50 5.9 NNW 15 24 8 13 1019.9 - 0.0
28/11:15am 20.3 17.1 10.0 51 5.6 NNW 17 26 9 14 1020.3 - 0.0
28/11:00am 19.9 17.2 10.3 54 5.2 NNW 15 22 8 12 1020.6 - 0.0
28/10:45am 19.6 17.4 10.8 56 4.8 NNW 13 22 7 12 1021.0 - 0.0
28/10:30am 18.9 16.3 10.6 58 4.5 N 15 24 8 13 1021.1 - 0.0
28/10:15am 18.6 16.1 10.9 61 4.2 NNW 15 22 8 12 1021.4 - 0.0
28/10:00am 17.9 15.7 10.7 62 3.9 NNW 13 19 7 10 1021.5 - 0.0
28/09:45am 17.4 14.3 10.3 63 3.8 NNW 17 24 9 13 1021.6 - 0.0
28/09:30am 17.3 15.1 10.8 65 3.5 NNW 13 22 7 12 1021.9 - 0.0
28/09:15am 16.6 14.3 10.5 67 3.3 NNW 13 22 7 12 1021.9 - 0.0
28/09:00am 16.2 13.5 10.5 69 3.0 NW 15 24 8 13 1022.0 - 0.0
28/08:45am 15.6 13.3 10.6 72 2.7 NW 13 20 7 11 1021.9 - 0.0
28/08:30am 14.9 12.2 10.4 74 2.4 NW 15 20 8 11 1021.9 - 0.0
28/08:15am 14.4 12.8 10.1 75 2.3 NW 9 19 5 10 1021.9 - 0.0
28/08:00am 14.3 13.1 10.2 76 2.1 NW 7 13 4 7 1021.9 - 0.0
28/07:45am 13.9 12.3 10.1 78 2.0 WNW 9 15 5 8 1021.9 - 0.0
28/07:30am 13.6 12.4 10.2 80 1.8 WNW 7 15 4 8 1021.9 - 0.0
28/07:15am 12.8 11.1 9.9 82 1.5 WNW 9 15 5 8 1021.9 - 0.0
28/07:00am 12.3 10.2 9.6 83 1.4 W 11 15 6 8 1021.9 - 0.0
28/06:45am 11.8 9.2 9.4 85 1.2 W 13 15 7 8 1021.9 - 0.0
28/06:30am 11.7 8.7 9.3 85 1.2 W 15 17 8 9 1021.9 - 0.0
28/06:15am 11.7 8.8 9.6 87 1.1 W 15 17 8 9 1021.8 - 0.0
28/06:00am 11.5 8.6 9.7 89 0.9 W 15 19 8 10 1021.7 - 0.0
28/05:45am 10.9 7.9 9.4 90 0.8 W 15 17 8 9 1021.6 - 0.0
28/05:30am 9.7 6.5 8.4 92 0.6 W 15 17 8 9 1021.5 - 0.0
28/05:15am 8.2 5.0 6.7 90 0.7 W 13 17 7 9 1021.4 - 0.0
28/05:00am 8.6 5.5 7.2 91 0.7 W 13 15 7 8 1021.2 - 0.0
28/04:45am 7.8 4.5 6.3 90 0.7 WNW 13 15 7 8 1021.2 - 0.0
28/04:30am 7.8 4.8 6.2 90 0.7 W 11 15 6 8 1021.0 - 0.0
28/04:15am 8.1 5.2 6.5 90 0.7 W 11 13 6 7 1021.0 - 0.0
28/04:00am 8.2 5.3 6.7 90 0.7 WNW 11 13 6 7 1021.0 - 0.0
28/03:45am 8.1 5.2 6.5 90 0.7 W 11 13 6 7 1021.2 - 0.0
28/03:30am 7.9 5.0 6.3 90 0.7 W 11 13 6 7 1021.2 - 0.0
28/03:15am 8.0 4.7 6.4 90 0.7 W 13 15 7 8 1021.3 - 0.0
28/03:00am 8.2 4.9 6.5 89 0.8 WNW 13 15 7 8 1021.4 - 0.0
28/02:45am 8.3 5.4 6.7 90 0.7 WNW 11 13 6 7 1021.5 - 0.0
28/02:30am 8.5 5.3 6.8 89 0.8 WNW 13 15 7 8 1021.7 - 0.0
28/02:15am 8.5 5.3 6.8 89 0.8 WNW 13 15 7 8 1021.7 - 0.0
28/02:00am 8.3 5.4 6.5 88 0.8 WNW 11 13 6 7 1021.8 - 0.0
28/01:45am 8.3 5.8 6.5 88 0.8 WNW 9 11 5 6 1022.0 - 0.0
28/01:30am 8.6 6.2 6.8 88 0.8 W 9 13 5 7 1022.1 - 0.0
28/01:15am 8.5 5.6 6.7 88 0.8 W 11 13 6 7 1022.4 - 0.0
28/01:00am 8.7 5.9 6.8 88 0.9 WNW 11 13 6 7 1022.4 - 0.0
28/12:45am 8.8 6.4 6.9 88 0.9 WNW 9 13 5 7 1022.3 - 0.0
28/12:30am 8.8 6.0 6.8 87 0.9 W 11 13 6 7 1022.5 - 0.0
28/12:15am 8.9 6.5 6.8 87 1.0 W 9 13 5 7 1022.7 - 0.0
28/12:00am 9.2 6.8 7.2 87 0.9 WNW 9 13 5 7 1022.8 - 0.0
 
Date/Time
EST
Tmp

°C
App
Tmp
°C
Dew
Point
°C
Rel
Hum
%
Delta-T

°C
Wind Press
QNH
hPa
Press
MSL
hPa
Rain
since
9 am
mm
Dir
 
Spd
km/h
Gust
km/h
Spd
kts
Gust
kts
27/11:45pm 9.3 6.9 7.2 87 1.0 WNW 9 11 5 6 1022.9 - 0.0
27/11:30pm 9.4 7.0 7.2 86 1.0 WNW 9 13 5 7 1022.8 - 0.0
27/11:15pm 9.6 7.3 7.3 85 1.1 WNW 9 13 5 7 1022.8 - 0.0
27/11:00pm 9.8 7.5 7.4 85 1.1 W 9 9 5 5 1023.0 - 0.0
27/10:45pm 9.9 8.0 7.4 84 1.2 WNW 7 9 4 5 1023.0 - 0.0
27/10:30pm 10.0 8.1 7.4 84 1.2 WNW 7 9 4 5 1022.9 - 0.0
27/10:15pm 10.4 8.5 7.6 83 1.4 NW 7 9 4 5 1022.9 - 0.0
27/10:00pm 10.6 8.7 7.7 82 1.4 NW 7 9 4 5 1022.8 - 0.0

Latest Capital City Observations: Canberra | Sydney | Melbourne | Brisbane | Adelaide | Perth | Hobart | Darwin

Other Formats:

Comma delimited format used in spreadsheet applications
http://www.bom.gov.au/fwo/IDN60901/IDN60901.95757.axf

JavaScript Object Notation format (JSON) in row-major order
http://www.bom.gov.au/fwo/IDN60901/IDN60901.95757.json